createdAt,value
2018-07-10T00:02:35.100Z,97980.59
2018-07-10T00:07:18.559Z,97973.02
2018-07-10T00:11:56.350Z,97966.05
2018-07-10T00:14:24.948Z,97958.10
2018-07-10T00:16:53.477Z,97951.37
2018-07-10T00:19:22.175Z,97950.07
2018-07-10T00:21:50.787Z,97961.41
2018-07-10T00:24:19.365Z,97968.70
2018-07-10T00:26:47.961Z,97965.92
2018-07-10T00:29:16.510Z,97969.41
2018-07-10T00:31:46.262Z,97972.27
2018-07-10T00:34:14.914Z,97965.44
2018-07-10T00:36:43.482Z,97957.58
2018-07-10T00:39:12.107Z,97967.25
2018-07-10T00:41:41.701Z,97967.46
2018-07-10T00:44:10.534Z,97972.72
2018-07-10T00:46:40.417Z,97971.44
2018-07-10T00:49:08.995Z,97969.52
2018-07-10T00:51:41.464Z,97965.16
2018-07-10T00:54:10.462Z,97966.17
2018-07-10T00:56:39.136Z,97955.27
2018-07-10T00:59:08.193Z,97955.05
2018-07-10T01:01:37.040Z,97952.98
2018-07-10T01:04:05.765Z,97941.64
2018-07-10T01:06:34.397Z,97947.05
2018-07-10T01:09:03.051Z,97949.63
2018-07-10T01:11:31.614Z,97951.47
2018-07-10T01:14:00.218Z,97956.55
2018-07-10T01:16:36.038Z,97952.78
2018-07-10T01:19:06.886Z,97950.44
2018-07-10T01:21:35.496Z,97947.80
2018-07-10T01:24:04.988Z,97941.23
2018-07-10T01:26:36.222Z,97939.56
2018-07-10T01:29:10.793Z,97945.07
2018-07-10T01:31:40.693Z,97944.47
2018-07-10T01:34:09.308Z,97940.88
2018-07-10T01:38:02.282Z,97949.23
2018-07-10T01:40:30.870Z,97939.39
2018-07-10T01:42:59.470Z,97940.73
2018-07-10T01:45:28.123Z,97940.48
2018-07-10T01:47:56.939Z,97935.62
2018-07-10T01:50:25.534Z,97935.55
2018-07-10T01:52:54.222Z,97929.61
2018-07-10T01:55:22.840Z,97942.55
2018-07-10T01:57:53.573Z,97939.63
2018-07-10T02:00:33.346Z,97939.39
2018-07-10T02:03:02.038Z,97937.00
2018-07-10T02:05:31.296Z,97944.00
2018-07-10T02:07:59.941Z,97939.42
2018-07-10T02:10:28.534Z,97941.55
2018-07-10T02:12:57.529Z,97945.60
2018-07-10T02:15:26.733Z,97938.95
2018-07-10T02:17:55.383Z,97928.64
2018-07-10T02:20:25.003Z,97920.05
2018-07-10T02:22:53.879Z,97915.70
2018-07-10T02:25:22.683Z,97913.02
2018-07-10T02:27:51.360Z,97919.82
2018-07-10T02:30:19.965Z,97924.72
2018-07-10T02:32:48.525Z,97923.41
2018-07-10T02:35:17.169Z,97910.50
2018-07-10T02:37:47.188Z,97906.42
2018-07-10T02:40:15.777Z,97906.41
2018-07-10T02:42:44.945Z,97903.67
2018-07-10T02:45:14.589Z,97895.02
2018-07-10T02:47:43.582Z,97884.78
2018-07-10T02:50:12.204Z,97880.45
2018-07-10T02:52:42.119Z,97872.08
2018-07-10T02:55:10.791Z,97869.91
2018-07-10T02:57:39.443Z,97875.05
2018-07-10T03:00:08.093Z,97879.08
2018-07-10T03:02:36.719Z,97879.64
2018-07-10T03:05:07.241Z,97880.92
2018-07-10T03:07:37.563Z,97881.14
2018-07-10T03:10:06.171Z,97879.00
2018-07-10T03:12:36.117Z,97880.39
2018-07-10T03:15:08.653Z,97883.66
2018-07-10T03:17:37.226Z,97882.63
2018-07-10T03:20:06.678Z,97882.62
2018-07-10T03:22:35.517Z,97875.36
2018-07-10T03:25:04.232Z,97871.12
2018-07-10T03:27:33.846Z,97861.90
2018-07-10T03:30:03.138Z,97862.17
2018-07-10T03:32:32.134Z,97858.95
2018-07-10T03:35:00.953Z,97861.59
2018-07-10T03:37:29.483Z,97856.70
2018-07-10T03:39:58.179Z,97851.83
2018-07-10T03:42:28.429Z,97853.18
2018-07-10T03:44:57.270Z,97850.73
2018-07-10T03:47:27.412Z,97852.58
2018-07-10T03:49:55.973Z,97854.49
2018-07-10T03:52:28.668Z,97858.26
2018-07-10T03:54:58.759Z,97862.88
2018-07-10T03:57:27.390Z,97874.48
2018-07-10T03:59:59.051Z,97868.27
2018-07-10T04:02:27.690Z,97874.48
2018-07-10T04:04:56.395Z,97875.03
2018-07-10T04:07:25.935Z,97873.61
2018-07-10T04:09:56.561Z,97875.20
2018-07-10T04:12:34.123Z,97879.61
2018-07-10T04:15:03.675Z,97886.41
2018-07-10T04:17:39.333Z,97887.81
2018-07-10T04:20:08.534Z,97892.16
2018-07-10T04:22:39.680Z,97898.47
2018-07-10T04:25:09.008Z,97887.44
2018-07-10T04:27:58.898Z,97890.70
2018-07-10T04:31:34.689Z,97896.07
2018-07-10T04:34:03.349Z,97890.12
2018-07-10T04:36:32.053Z,97882.25
2018-07-10T04:39:00.683Z,97874.42
2018-07-10T04:41:31.723Z,97878.95
2018-07-10T04:44:08.239Z,97888.88
2018-07-10T04:46:40.857Z,97890.47
2018-07-10T04:49:16.531Z,97883.97
2018-07-10T04:51:48.179Z,97892.86
2018-07-10T04:54:25.032Z,97899.91
2018-07-10T04:57:03.351Z,97899.63
2018-07-10T04:59:34.224Z,97902.58
2018-07-10T05:02:03.498Z,97895.83
2018-07-10T05:04:32.231Z,97888.86
2018-07-10T05:07:04.858Z,97880.23
2018-07-10T05:09:34.300Z,97886.19
2018-07-10T05:12:02.998Z,97887.59
2018-07-10T05:14:31.522Z,97888.66
2018-07-10T05:17:00.457Z,97883.23
2018-07-10T05:19:29.396Z,97886.16
2018-07-10T05:21:58.052Z,97896.39
2018-07-10T05:24:26.676Z,97892.34
2018-07-10T05:26:55.356Z,97894.23
2018-07-10T05:29:24.100Z,97892.03
2018-07-10T05:31:52.859Z,97890.41
2018-07-10T05:34:21.559Z,97886.08
2018-07-10T05:36:50.844Z,97882.13
2018-07-10T05:39:19.477Z,97878.41
2018-07-10T05:41:48.581Z,97879.19
2018-07-10T05:44:21.581Z,97883.77
2018-07-10T05:46:50.472Z,97883.73
2018-07-10T05:49:19.105Z,97868.98
2018-07-10T05:51:52.185Z,97875.20
2018-07-10T05:54:21.670Z,97877.60
2018-07-10T05:56:50.313Z,97888.75
2018-07-10T05:59:18.854Z,97883.75
2018-07-10T06:01:47.468Z,97877.95
2018-07-10T06:04:17.376Z,97887.00
2018-07-10T06:06:46.787Z,97893.09
2018-07-10T06:09:16.627Z,97896.94
2018-07-10T06:11:45.630Z,97896.34
2018-07-10T06:14:15.047Z,97892.33
2018-07-10T06:16:44.081Z,97894.38
2018-07-10T06:19:12.653Z,97893.22
2018-07-10T06:21:44.890Z,97896.41
2018-07-10T06:24:17.454Z,97895.09
2018-07-10T06:26:54.376Z,97897.16
2018-07-10T06:29:24.732Z,97901.59
2018-07-10T06:31:55.658Z,97902.66
2018-07-10T06:34:32.910Z,97903.77
2018-07-10T06:37:11.794Z,97896.52
2018-07-10T06:39:40.786Z,97886.33
2018-07-10T06:42:16.407Z,97896.45
2018-07-10T06:44:47.763Z,97893.44
2018-07-10T06:47:20.906Z,97896.95
2018-07-10T06:49:50.287Z,97907.84
2018-07-10T06:52:20.177Z,97904.45
2018-07-10T06:55:03.812Z,97892.46
2018-07-10T06:57:33.694Z,97895.73
2018-07-10T07:00:10.522Z,97892.16
2018-07-10T07:02:39.658Z,97884.34
2018-07-10T07:05:08.497Z,97876.31
2018-07-10T07:07:38.245Z,97881.91
2018-07-10T07:10:08.552Z,97875.60
2018-07-10T07:12:38.010Z,97870.69
2018-07-10T07:15:10.398Z,97873.13
2018-07-10T07:17:45.201Z,97872.37
2018-07-10T07:20:13.691Z,97880.30
2018-07-10T07:22:42.195Z,97883.66
2018-07-10T07:25:10.731Z,97887.91
2018-07-10T07:27:39.295Z,97891.44
2018-07-10T07:30:07.840Z,97883.77
2018-07-10T07:32:36.673Z,97887.25
2018-07-10T07:35:05.372Z,97898.03
2018-07-10T07:37:37.518Z,97895.98
2018-07-10T07:40:06.284Z,97893.56
2018-07-10T07:42:36.323Z,97899.19
2018-07-10T07:45:04.935Z,97901.91
2018-07-10T07:47:33.514Z,97893.08
2018-07-10T07:50:02.112Z,97891.20
2018-07-10T07:52:31.768Z,97900.74
2018-07-10T07:55:02.306Z,97898.66
2018-07-10T07:57:30.947Z,97892.31
2018-07-10T07:59:59.548Z,97889.72
2018-07-10T08:02:28.134Z,97883.61
2018-07-10T08:04:56.714Z,97886.14
2018-07-10T08:07:25.858Z,97887.08
2018-07-10T08:09:56.564Z,97896.48
2018-07-10T08:12:26.366Z,97899.54
2018-07-10T08:14:55.353Z,97898.14
2018-07-10T08:17:24.948Z,97889.34
2018-07-10T08:19:55.149Z,97887.21
2018-07-10T08:22:24.660Z,97891.08
2018-07-10T08:24:53.462Z,97891.69
2018-07-10T08:27:22.558Z,97902.12
2018-07-10T08:29:51.158Z,97898.52
2018-07-10T08:32:19.705Z,97904.55
2018-07-10T08:34:48.285Z,97893.88
2018-07-10T08:37:16.877Z,97891.03
2018-07-10T08:39:46.115Z,97884.39
2018-07-10T08:42:14.735Z,97884.45
2018-07-10T08:44:43.432Z,97890.03
2018-07-10T08:47:12.026Z,97893.08
2018-07-10T08:49:41.608Z,97892.41
2018-07-10T08:52:11.873Z,97894.03
2018-07-10T08:54:40.494Z,97895.00
2018-07-10T08:57:09.074Z,97893.39
2018-07-10T08:59:38.538Z,97889.77
2018-07-10T09:02:07.325Z,97891.20
2018-07-10T09:04:35.933Z,97890.15
2018-07-10T09:07:05.427Z,97890.68
2018-07-10T09:09:34.027Z,97891.31
2018-07-10T09:12:02.609Z,97886.23
2018-07-10T09:14:31.173Z,97883.39
2018-07-10T09:16:59.710Z,97892.41
2018-07-10T09:19:29.669Z,97892.66
2018-07-10T09:22:06.574Z,97876.24
2018-07-10T09:24:37.280Z,97882.75
2018-07-10T09:27:08.432Z,97886.27
2018-07-10T09:29:38.207Z,97878.50
2018-07-10T09:32:07.551Z,97872.09
2018-07-10T09:34:36.213Z,97874.70
2018-07-10T09:37:09.165Z,97875.16
2018-07-10T09:39:37.879Z,97866.59
2018-07-10T09:42:09.180Z,97863.17
2018-07-10T09:44:37.793Z,97866.20
2018-07-10T09:47:06.462Z,97877.23
2018-07-10T09:49:35.078Z,97877.45
2018-07-10T09:52:03.704Z,97875.91
2018-07-10T09:54:32.381Z,97876.52
2018-07-10T09:57:01.115Z,97875.13
2018-07-10T09:59:30.031Z,97872.50
2018-07-10T10:02:02.784Z,97877.71
2018-07-10T10:04:32.466Z,97878.83
2018-07-10T10:07:01.418Z,97873.58
2018-07-10T10:09:30.097Z,97867.36
2018-07-10T10:11:58.924Z,97870.19
2018-07-10T10:14:27.582Z,97867.86
2018-07-10T10:16:56.229Z,97865.80
2018-07-10T10:19:24.805Z,97861.63
2018-07-10T10:21:53.829Z,97865.16
2018-07-10T10:24:22.416Z,97860.55
2018-07-10T10:26:51.130Z,97858.50
2018-07-10T10:29:19.866Z,97853.81
2018-07-10T10:31:48.481Z,97850.16
2018-07-10T10:34:17.058Z,97839.52
2018-07-10T10:36:45.662Z,97835.92
2018-07-10T10:39:14.230Z,97835.89
2018-07-10T10:41:42.843Z,97838.68
2018-07-10T10:44:11.434Z,97832.33
2018-07-10T10:46:44.267Z,97818.74
2018-07-10T10:49:12.922Z,97821.98
2018-07-10T10:51:42.226Z,97813.13
2018-07-10T10:54:10.773Z,97809.86
2018-07-10T10:56:39.364Z,97809.62
2018-07-10T10:59:07.967Z,97810.47
2018-07-10T11:01:37.016Z,97808.02
2018-07-10T11:04:06.297Z,97801.06
2018-07-10T11:06:34.880Z,97797.04
2018-07-10T11:09:03.761Z,97789.83
2018-07-10T11:11:33.281Z,97791.22
2018-07-10T11:14:03.602Z,97784.27
2018-07-10T11:16:32.214Z,97784.45
2018-07-10T11:19:07.348Z,97778.45
2018-07-10T11:21:43.331Z,97776.66
2018-07-10T11:24:13.242Z,97780.72
2018-07-10T11:26:45.182Z,97777.03
2018-07-10T11:29:14.885Z,97773.96
2018-07-10T11:31:43.492Z,97771.36
2018-07-10T11:34:12.212Z,97768.27
2018-07-10T11:36:40.814Z,97765.55
2018-07-10T11:39:10.903Z,97765.98
2018-07-10T11:41:59.125Z,97770.58
2018-07-10T11:44:27.685Z,97767.61
2018-07-10T11:46:56.254Z,97754.08
2018-07-10T12:04:52.680Z,97735.39
2018-07-10T12:07:21.274Z,97739.11
2018-07-10T12:10:00.933Z,97747.81
2018-07-10T12:12:29.604Z,97796.50
2018-07-10T12:14:58.146Z,97776.39
2018-07-10T12:17:26.861Z,97778.38
2018-07-10T12:19:55.509Z,97795.68
2018-07-10T12:22:24.663Z,97856.05
2018-07-10T12:24:53.273Z,97864.69
2018-07-10T12:27:21.963Z,97872.61
2018-07-10T12:29:50.837Z,97866.53
2018-07-10T12:32:19.499Z,97848.30
2018-07-10T12:34:48.190Z,97837.75
2018-07-10T12:37:17.613Z,97833.06
2018-07-10T12:39:46.866Z,97836.13
2018-07-10T12:42:15.677Z,97833.88
2018-07-10T12:44:44.763Z,97844.53
2018-07-10T12:47:14.475Z,97840.02
2018-07-10T12:49:43.134Z,97833.36
2018-07-10T12:52:12.496Z,97818.66
2018-07-10T12:54:41.117Z,97819.42
2018-07-10T12:57:10.614Z,97828.14
2018-07-10T12:59:39.292Z,97821.37
2018-07-10T13:02:07.957Z,97816.67
2018-07-10T13:04:37.065Z,97819.16
2018-07-10T13:07:05.755Z,97828.41
2018-07-10T13:09:34.458Z,97831.91
2018-07-10T13:12:03.462Z,97833.06
2018-07-10T13:14:32.147Z,97834.88
2018-07-10T13:17:01.762Z,97830.36
2018-07-10T13:19:31.348Z,97834.95
2018-07-10T13:22:01.011Z,97835.60
2018-07-10T13:24:29.897Z,97827.49
2018-07-10T13:26:58.578Z,97829.83
2018-07-10T13:29:27.218Z,97828.59
2018-07-10T13:31:55.976Z,97823.65
2018-07-10T13:34:24.954Z,97828.34
2018-07-10T13:36:54.211Z,97829.36
2018-07-10T13:39:22.901Z,97831.47
2018-07-10T13:41:51.527Z,97823.29
2018-07-10T13:44:20.223Z,97822.69
2018-07-10T13:46:48.860Z,97838.94
2018-07-10T13:49:17.480Z,97836.89
2018-07-10T13:51:45.941Z,97834.70
2018-07-10T13:54:15.243Z,97841.80
2018-07-10T13:56:44.114Z,97836.13
2018-07-10T13:59:12.742Z,97839.73
2018-07-10T14:01:41.467Z,97838.00
2018-07-10T14:04:22.568Z,97829.34
2018-07-10T14:06:51.100Z,97825.62
2018-07-10T14:09:19.674Z,97825.40
2018-07-10T14:11:48.326Z,97824.77
2018-07-10T14:14:17.282Z,97826.38
2018-07-10T14:16:52.051Z,97837.59
2018-07-10T14:19:20.723Z,97841.90
2018-07-10T14:21:49.333Z,97845.47
2018-07-10T14:24:17.967Z,97845.39
2018-07-10T14:26:46.760Z,97852.83
2018-07-10T14:29:16.263Z,97869.72
2018-07-10T14:31:44.910Z,97872.05
2018-07-10T14:34:13.582Z,97885.13
2018-07-10T14:36:42.201Z,97889.89
2018-07-10T14:39:10.925Z,97898.78
2018-07-10T14:41:40.127Z,97898.96
2018-07-10T14:44:10.983Z,97905.63
2018-07-10T14:46:39.611Z,97888.02
2018-07-10T14:49:08.360Z,97878.89
2018-07-10T14:51:44.711Z,97877.07
2018-07-10T14:54:13.356Z,97859.16
2018-07-10T14:56:42.198Z,97850.56
2018-07-10T14:59:11.298Z,97856.64
2018-07-10T15:01:40.733Z,97863.14
2018-07-10T15:04:09.797Z,97854.25
2018-07-10T15:06:38.512Z,97851.91
2018-07-10T15:09:08.485Z,97844.20
2018-07-10T15:11:37.122Z,97844.80
2018-07-10T15:14:09.268Z,97847.49
2018-07-10T15:16:43.243Z,97843.56
2018-07-10T15:19:11.826Z,97840.88
2018-07-10T15:21:40.489Z,97837.03
2018-07-10T15:24:09.930Z,97837.99
2018-07-10T15:26:38.574Z,97834.25
2018-07-10T15:29:07.178Z,97828.19
2018-07-10T15:31:35.884Z,97811.56
2018-07-10T15:34:04.819Z,97804.83
2018-07-10T15:36:33.442Z,97802.53
2018-07-10T15:39:03.364Z,97799.56
2018-07-10T15:41:32.009Z,97811.89
2018-07-10T15:44:00.639Z,97816.06
2018-07-10T15:46:29.222Z,97813.61
2018-07-10T15:48:57.767Z,97817.14
2018-07-10T15:52:51.586Z,97832.31
2018-07-10T15:55:20.653Z,97840.75
2018-07-10T15:57:49.989Z,97846.14
2018-07-10T16:00:18.605Z,97852.10
2018-07-10T16:02:47.381Z,97844.95
2018-07-10T16:05:16.005Z,97840.80
2018-07-10T16:07:44.580Z,97840.04
2018-07-10T16:10:13.314Z,97837.33
2018-07-10T16:12:41.920Z,97842.34
2018-07-10T16:15:10.588Z,97838.23
2018-07-10T16:17:39.195Z,97841.27
2018-07-10T16:20:09.740Z,97839.77
2018-07-10T16:22:42.317Z,97843.98
2018-07-10T16:25:32.761Z,97854.32
2018-07-10T16:28:10.041Z,97853.70
2018-07-10T16:30:38.692Z,97854.63
2018-07-10T16:33:07.229Z,97854.99
2018-07-10T16:35:35.779Z,97856.80
2018-07-10T16:38:04.363Z,97859.87
2018-07-10T16:40:32.921Z,97861.11
2018-07-10T16:43:01.591Z,97861.76
2018-07-10T16:45:35.713Z,97862.91
2018-07-10T16:48:23.655Z,97874.34
2018-07-10T16:51:01.274Z,97870.84
2018-07-10T16:53:36.292Z,97870.39
2018-07-10T16:56:04.948Z,97861.09
2018-07-10T16:58:35.373Z,97860.84
2018-07-10T17:01:04.325Z,97865.14
2018-07-10T17:03:32.873Z,97865.52
2018-07-10T17:06:01.718Z,97870.23
2018-07-10T17:08:30.341Z,97866.66
2018-07-10T17:10:58.878Z,97865.20
2018-07-10T17:13:27.430Z,97868.20
2018-07-10T17:15:58.141Z,97863.38
2018-07-10T17:18:26.753Z,97871.45
2018-07-10T17:20:58.237Z,97864.09
2018-07-10T17:23:26.869Z,97862.05
2018-07-10T17:25:56.105Z,97860.22
2018-07-10T17:28:24.711Z,97855.78
2018-07-10T17:30:53.278Z,97855.27
2018-07-10T17:33:21.917Z,97847.43
2018-07-10T17:35:50.458Z,97851.48
2018-07-10T17:38:19.078Z,97856.94
2018-07-10T17:40:47.645Z,97867.31
2018-07-10T17:43:16.876Z,97868.70
2018-07-10T17:45:45.380Z,97867.05
2018-07-10T17:48:13.929Z,97876.94
2018-07-10T17:50:42.457Z,97878.31
2018-07-10T17:53:11.042Z,97879.98
2018-07-10T17:55:39.584Z,97890.30
2018-07-10T17:58:08.285Z,97882.94
2018-07-10T18:00:37.940Z,97893.08
2018-07-10T18:03:06.513Z,97896.16
2018-07-10T18:05:35.139Z,97901.00
2018-07-10T18:08:03.795Z,97899.70
2018-07-10T18:10:32.658Z,97901.48
2018-07-10T18:13:01.260Z,97906.01
2018-07-10T18:15:29.828Z,97909.02
2018-07-10T18:17:58.437Z,97910.08
2018-07-10T18:20:29.316Z,97912.17
2018-07-10T18:22:58.018Z,97918.78
2018-07-10T18:25:26.403Z,97918.02
2018-07-10T18:27:55.011Z,97923.37
2018-07-10T18:30:26.881Z,97927.99
2018-07-10T18:32:55.492Z,97924.92
2018-07-10T18:35:24.027Z,97927.09
2018-07-10T18:37:52.664Z,97924.82
2018-07-10T18:40:21.191Z,97924.77
2018-07-10T18:42:50.082Z,97922.30
2018-07-10T18:45:18.689Z,97921.19
2018-07-10T18:47:47.921Z,97924.95
2018-07-10T18:50:17.953Z,97931.77
2018-07-10T18:52:48.956Z,97933.07
2018-07-10T18:55:17.482Z,97932.10
2018-07-10T18:57:56.637Z,97938.00
2018-07-10T19:00:36.981Z,97934.42
2018-07-10T19:03:10.632Z,97930.88
2018-07-10T19:05:48.717Z,97936.63
2018-07-10T19:08:18.323Z,97936.74
2018-07-10T19:10:47.895Z,97937.53
2018-07-10T19:13:17.458Z,97938.64
2018-07-10T19:15:47.475Z,97947.47
2018-07-10T19:18:16.197Z,97950.31
2018-07-10T19:20:51.550Z,97951.95
2018-07-10T19:23:26.015Z,97949.78
2018-07-10T19:25:55.681Z,97944.13
2018-07-10T19:28:24.567Z,97948.61
2018-07-10T19:31:05.523Z,97955.17
2018-07-10T19:33:34.647Z,97951.75
2018-07-10T19:36:03.242Z,97961.53
2018-07-10T19:38:33.955Z,97964.77
2018-07-10T19:41:03.609Z,97960.70
2018-07-10T19:43:33.057Z,97960.74
2018-07-10T19:46:01.619Z,97964.23
2018-07-10T19:48:30.980Z,97959.70
2018-07-10T19:50:59.549Z,97965.97
2018-07-10T19:53:28.587Z,97973.05
2018-07-10T19:55:57.161Z,97970.91
2018-07-10T19:58:31.075Z,97972.36
2018-07-10T20:01:11.111Z,97970.22
2018-07-10T20:03:46.874Z,97978.86
2018-07-10T20:06:21.101Z,97973.47
2018-07-10T20:08:49.668Z,97968.63
2018-07-10T20:11:23.193Z,97972.67
2018-07-10T20:13:51.986Z,97976.45
2018-07-10T20:16:27.921Z,97979.63
2018-07-10T20:20:13.278Z,97963.45
2018-07-10T20:22:53.000Z,97971.81
2018-07-10T20:27:40.837Z,97964.81
2018-07-10T20:30:26.432Z,97956.98
2018-07-10T20:33:01.165Z,97968.54
2018-07-10T20:35:33.124Z,97971.25
2018-07-10T20:38:01.645Z,97975.28
2018-07-10T20:40:34.423Z,97974.75
2018-07-10T20:43:16.192Z,97974.75
2018-07-10T20:45:48.168Z,97983.64
2018-07-10T20:48:32.029Z,97973.64
2018-07-10T20:51:05.059Z,97978.47
2018-07-10T20:53:38.635Z,97975.53
2018-07-10T20:57:27.992Z,97975.80
2018-07-10T21:00:03.188Z,97972.27
2018-07-10T21:03:44.377Z,97977.08
2018-07-10T21:06:22.087Z,97959.56
2018-07-10T21:09:01.922Z,97961.98
2018-07-10T21:11:36.545Z,97964.66
2018-07-10T21:14:14.533Z,97966.53
2018-07-10T21:16:55.344Z,97964.85
2018-07-10T21:19:39.401Z,97963.52
2018-07-10T21:22:17.891Z,97964.86
2018-07-10T21:24:49.270Z,97961.30
2018-07-10T21:27:31.610Z,97964.76
2018-07-10T21:30:11.582Z,97964.47
2018-07-10T21:32:51.136Z,97965.82
2018-07-10T21:35:21.480Z,97963.69
2018-07-10T21:40:12.236Z,97960.70
2018-07-10T21:42:52.321Z,97964.91
2018-07-10T21:45:32.756Z,97957.08
2018-07-10T21:50:15.687Z,97960.50
2018-07-10T21:52:44.225Z,97958.84
2018-07-10T21:55:12.743Z,97953.66
2018-07-10T21:57:41.945Z,97951.00
2018-07-10T22:00:10.478Z,97949.92
2018-07-10T22:02:39.073Z,97949.11
2018-07-10T22:05:07.564Z,97947.77
2018-07-10T22:07:36.182Z,97952.84
2018-07-10T22:10:07.419Z,97943.86
2018-07-10T22:12:41.774Z,97950.84
2018-07-10T22:15:10.308Z,97953.76
2018-07-10T22:17:39.401Z,97954.05
2018-07-10T22:20:08.659Z,97961.75
2018-07-10T22:22:37.226Z,97961.19
2018-07-10T22:25:08.402Z,97968.35
2018-07-10T22:27:40.277Z,97959.25
2018-07-10T22:30:15.710Z,97961.67
2018-07-10T22:32:49.330Z,97963.31
2018-07-10T22:35:17.918Z,97971.63
2018-07-10T22:37:47.598Z,97965.70
2018-07-10T22:40:17.354Z,97957.91
2018-07-10T22:42:46.769Z,97955.44
2018-07-10T22:45:16.917Z,97947.42
2018-07-10T22:47:46.129Z,97946.05
2018-07-10T22:50:17.713Z,97950.03
2018-07-10T22:52:52.385Z,97951.90
2018-07-10T22:55:24.478Z,97953.77
2018-07-10T22:57:53.653Z,97952.90
2018-07-10T23:00:32.675Z,97953.68
2018-07-10T23:03:05.573Z,97942.69
2018-07-10T23:05:34.872Z,97953.41
2018-07-10T23:08:03.429Z,97948.91
2018-07-10T23:10:32.005Z,97940.25
2018-07-10T23:13:00.642Z,97936.40
2018-07-10T23:15:30.507Z,97932.11
2018-07-10T23:17:59.884Z,97936.34
2018-07-10T23:20:28.457Z,97927.95
2018-07-10T23:22:57.761Z,97932.53
2018-07-10T23:25:27.488Z,97928.71
2018-07-10T23:28:01.878Z,97922.88
2018-07-10T23:30:33.730Z,97923.45
2018-07-10T23:33:02.271Z,97920.42
2018-07-10T23:35:33.186Z,97921.94
2018-07-10T23:38:07.210Z,97923.67
2018-07-10T23:40:39.513Z,97925.01
2018-07-10T23:43:08.070Z,97923.05
2018-07-10T23:45:37.334Z,97916.98
2018-07-10T23:48:06.841Z,97917.60
2018-07-10T23:50:37.192Z,97927.54
2018-07-10T23:54:00.957Z,97926.56
2018-07-10T23:56:29.504Z,97931.23
2018-07-10T23:58:59.353Z,97926.49
